createdAt,value
2019-05-20T00:01:31.218Z,21.40
2019-05-20T00:03:58.923Z,23.73
2019-05-20T00:06:26.922Z,20.47
2019-05-20T00:08:54.788Z,21.53
2019-05-20T00:11:22.709Z,21.33
2019-05-20T00:13:50.417Z,22.93
2019-05-20T00:16:18.501Z,22.17
2019-05-20T00:18:46.311Z,21.03
2019-05-20T00:21:14.062Z,19.50
2019-05-20T00:23:41.941Z,19.13
2019-05-20T00:26:09.713Z,21.43
2019-05-20T00:28:37.453Z,21.53
2019-05-20T00:31:06.263Z,20.43
2019-05-20T00:36:38.034Z,26.47
2019-05-20T00:39:18.896Z,28.80
2019-05-20T00:41:46.880Z,29.40
2019-05-20T00:44:14.684Z,30.13
2019-05-20T00:46:42.536Z,30.47
2019-05-20T00:49:10.287Z,31.77
2019-05-20T00:51:38.073Z,35.53
2019-05-20T00:54:06.128Z,29.93
2019-05-20T00:56:34.038Z,30.53
2019-05-20T00:59:02.029Z,35.57
2019-05-20T01:01:29.863Z,32.73
2019-05-20T01:03:58.027Z,32.77
2019-05-20T01:06:25.913Z,37.00
2019-05-20T01:08:54.017Z,35.63
2019-05-20T01:11:21.655Z,34.67
2019-05-20T01:13:49.569Z,35.70
2019-05-20T01:16:17.585Z,34.53
2019-05-20T01:18:45.334Z,39.50
2019-05-20T01:21:13.258Z,38.63
2019-05-20T01:23:41.303Z,40.20
2019-05-20T01:26:09.192Z,37.30
2019-05-20T01:28:36.999Z,37.53
2019-05-20T01:31:04.899Z,40.97
2019-05-20T01:33:33.088Z,39.83
2019-05-20T01:36:01.170Z,30.23
2019-05-20T01:38:28.941Z,28.27
2019-05-20T01:40:56.850Z,36.07
2019-05-20T01:43:24.860Z,32.17
2019-05-20T01:45:52.782Z,31.17
2019-05-20T01:48:20.533Z,30.27
2019-05-20T01:50:48.349Z,26.50
2019-05-20T01:53:16.145Z,27.60
2019-05-20T01:55:44.089Z,27.67
2019-05-20T01:58:11.762Z,30.37
2019-05-20T02:00:39.618Z,26.73
2019-05-20T02:03:07.627Z,30.40
2019-05-20T02:05:35.511Z,29.00
2019-05-20T02:08:03.350Z,30.30
2019-05-20T02:10:31.341Z,30.27
2019-05-20T02:12:59.031Z,27.37
2019-05-20T02:15:38.852Z,32.20
2019-05-20T02:18:06.671Z,26.87
2019-05-20T02:20:34.518Z,29.63
2019-05-20T02:23:14.802Z,28.23
2019-05-20T02:25:46.924Z,25.07
2019-05-20T02:28:16.179Z,23.50
2019-05-20T02:30:44.138Z,21.97
2019-05-20T02:33:12.053Z,23.83
2019-05-20T02:35:39.802Z,19.23
2019-05-20T02:38:07.667Z,18.20
2019-05-20T02:40:35.671Z,20.63
2019-05-20T02:43:04.015Z,20.03
2019-05-20T02:45:31.992Z,16.63
2019-05-20T02:47:59.793Z,19.17
2019-05-20T02:50:27.915Z,18.73
2019-05-20T02:52:55.888Z,19.07
2019-05-20T02:55:23.863Z,18.60
2019-05-20T02:57:51.610Z,20.30
2019-05-20T03:00:19.517Z,19.70
2019-05-20T03:02:47.762Z,16.87
2019-05-20T03:05:17.830Z,16.37
2019-05-20T03:07:45.983Z,13.97
2019-05-20T03:10:16.838Z,13.63
2019-05-20T03:12:44.986Z,12.03
2019-05-20T03:15:13.024Z,13.93
2019-05-20T03:18:08.892Z,12.77
2019-05-20T03:20:44.227Z,14.90
2019-05-20T03:23:19.682Z,14.57
2019-05-20T03:25:47.956Z,14.30
2019-05-20T03:28:18.209Z,13.57
2019-05-20T03:30:52.751Z,16.47
2019-05-20T03:33:21.034Z,16.90
2019-05-20T03:35:52.115Z,15.33
2019-05-20T03:38:23.117Z,20.80
2019-05-20T03:40:49.960Z,21.90
2019-05-20T03:43:20.553Z,21.67
2019-05-20T03:45:48.709Z,20.63
2019-05-20T03:48:16.886Z,22.10
2019-05-20T03:50:44.937Z,22.77
2019-05-20T03:53:13.012Z,19.07
2019-05-20T03:55:41.299Z,23.60
2019-05-20T03:58:14.151Z,21.20
2019-05-20T04:00:44.551Z,19.60
2019-05-20T04:03:13.317Z,18.97
2019-05-20T04:05:43.159Z,21.23
2019-05-20T04:08:11.605Z,19.33
2019-05-20T04:10:46.950Z,19.33
2019-05-20T04:13:20.725Z,20.53
2019-05-20T04:15:49.102Z,20.00
2019-05-20T04:18:39.069Z,19.63
2019-05-20T04:21:27.390Z,19.07
2019-05-20T04:24:04.148Z,20.53
2019-05-20T04:26:39.247Z,21.23
2019-05-20T04:29:38.056Z,24.37
2019-05-20T04:32:13.433Z,26.33
2019-05-20T04:34:50.615Z,30.63
2019-05-20T04:37:23.138Z,26.17
2019-05-20T04:39:56.394Z,29.47
2019-05-20T04:42:28.130Z,25.13
2019-05-20T04:45:00.408Z,27.87
2019-05-20T04:47:44.855Z,26.10
2019-05-20T04:50:20.939Z,23.37
2019-05-20T04:53:01.934Z,26.43
2019-05-20T04:55:41.154Z,26.70
2019-05-20T04:58:23.477Z,26.27
2019-05-20T05:03:35.492Z,19.27
2019-05-20T05:06:22.261Z,21.17
2019-05-20T05:09:01.788Z,18.47
2019-05-20T05:12:03.700Z,15.27
2019-05-20T05:14:38.808Z,17.40
2019-05-20T05:17:45.516Z,16.23
2019-05-20T05:20:18.466Z,14.63
2019-05-20T05:22:46.706Z,15.77
2019-05-20T05:25:14.733Z,17.10
2019-05-20T05:27:47.173Z,16.63
2019-05-20T05:30:18.533Z,15.20
2019-05-20T05:33:08.074Z,14.33
2019-05-20T05:35:52.773Z,13.27
2019-05-20T05:38:25.997Z,14.13
2019-05-20T05:40:58.084Z,14.47
2019-05-20T05:43:30.902Z,14.47
2019-05-20T05:46:02.080Z,14.80
2019-05-20T05:48:39.334Z,14.57
2019-05-20T05:51:33.161Z,14.53
2019-05-20T05:54:32.009Z,14.63
2019-05-20T05:57:17.460Z,13.40
2019-05-20T06:00:02.069Z,13.50
2019-05-20T06:02:30.813Z,13.37
2019-05-20T06:05:03.823Z,12.07
2019-05-20T06:07:51.757Z,11.83
2019-05-20T06:10:35.992Z,11.77
2019-05-20T06:13:45.140Z,11.80
2019-05-20T06:19:15.486Z,12.97
2019-05-20T06:21:50.744Z,11.87
2019-05-20T07:04:20.573Z,10.73
2019-05-20T07:06:48.453Z,10.07
2019-05-20T07:09:16.223Z,8.17
2019-05-20T07:11:54.134Z,7.97
2019-05-20T07:14:20.838Z,9.63
2019-05-20T07:16:48.513Z,9.40
2019-05-20T07:19:16.255Z,10.37
2019-05-20T07:21:44.140Z,9.83
2019-05-20T07:24:11.728Z,9.00
2019-05-20T07:26:39.511Z,9.00
2019-05-20T07:29:10.926Z,9.13
2019-05-20T07:31:38.525Z,8.57
2019-05-20T07:34:06.495Z,9.90
2019-05-20T07:36:34.389Z,9.93
2019-05-20T07:39:02.204Z,9.23
2019-05-20T07:41:29.758Z,10.03
2019-05-20T07:43:57.819Z,9.63
2019-05-20T07:46:25.622Z,9.37
2019-05-20T07:48:53.696Z,9.43
2019-05-20T07:51:22.515Z,10.23
2019-05-20T07:53:58.361Z,8.17
2019-05-20T07:56:30.159Z,8.90
2019-05-20T07:59:01.454Z,10.67
2019-05-20T08:01:29.062Z,10.43
2019-05-20T08:03:56.805Z,9.77
2019-05-20T08:06:24.562Z,9.70
2019-05-20T08:08:52.249Z,7.60
2019-05-20T08:11:19.841Z,7.93
2019-05-20T08:13:47.485Z,8.03
2019-05-20T08:16:15.150Z,6.90
2019-05-20T08:18:43.235Z,8.13
2019-05-20T08:21:10.803Z,8.63
2019-05-20T08:23:38.387Z,7.93
2019-05-20T08:26:06.455Z,6.73
2019-05-20T08:28:34.065Z,8.60
2019-05-20T08:31:01.637Z,5.53
2019-05-20T08:33:29.389Z,5.93
2019-05-20T08:35:57.018Z,5.97
2019-05-20T08:38:25.901Z,5.37
2019-05-20T08:40:53.501Z,6.77
2019-05-20T08:43:21.170Z,7.17
2019-05-20T08:45:48.811Z,5.93
2019-05-20T08:48:16.360Z,4.73
2019-05-20T08:50:43.968Z,5.67
2019-05-20T08:53:11.925Z,6.47
2019-05-20T08:55:39.590Z,6.80
2019-05-20T08:58:07.389Z,6.17
2019-05-20T09:00:35.160Z,6.87
2019-05-20T09:03:03.086Z,4.87
2019-05-20T09:05:30.718Z,5.43
2019-05-20T09:08:03.415Z,4.97
2019-05-20T09:10:28.593Z,6.10
2019-05-20T09:12:56.329Z,5.50
2019-05-20T09:15:24.174Z,5.00
2019-05-20T09:17:52.031Z,4.73
2019-05-20T09:20:19.967Z,5.37
2019-05-20T09:22:47.763Z,6.20
2019-05-20T09:25:17.739Z,4.50
2019-05-20T09:27:45.511Z,4.97
2019-05-20T09:30:13.768Z,4.97
2019-05-20T09:32:43.071Z,6.13
2019-05-20T09:35:11.498Z,5.00
2019-05-20T09:37:39.518Z,4.73
2019-05-20T09:40:25.401Z,5.00
2019-05-20T09:42:53.275Z,5.60
2019-05-20T09:45:25.394Z,5.43
2019-05-20T09:47:59.777Z,5.10
2019-05-20T09:50:28.561Z,4.40
2019-05-20T09:52:58.649Z,5.63
2019-05-20T09:55:28.727Z,5.17
2019-05-20T09:57:56.882Z,3.97
2019-05-20T10:00:25.115Z,4.77
2019-05-20T10:02:53.013Z,5.10
2019-05-20T10:05:20.876Z,4.67
2019-05-20T10:07:48.833Z,4.40
2019-05-20T10:10:17.098Z,5.20
2019-05-20T10:12:46.899Z,3.13
2019-05-20T10:15:20.411Z,3.87
2019-05-20T10:17:48.307Z,3.93
2019-05-20T10:20:16.130Z,3.07
2019-05-20T10:22:43.877Z,4.13
2019-05-20T10:25:12.037Z,3.30
2019-05-20T10:27:40.328Z,3.77
2019-05-20T10:30:09.634Z,5.43
2019-05-20T10:32:37.460Z,4.13
2019-05-20T10:35:05.479Z,4.20
2019-05-20T10:37:33.316Z,3.30
2019-05-20T10:40:01.194Z,3.20
2019-05-20T10:42:28.804Z,4.13
2019-05-20T10:44:56.400Z,3.20
2019-05-20T10:47:24.127Z,3.47
2019-05-20T10:49:51.739Z,3.13
2019-05-20T10:52:19.276Z,2.80
2019-05-20T10:54:46.936Z,2.00
2019-05-20T10:57:14.533Z,2.53
2019-05-20T10:59:42.195Z,3.93
2019-05-20T11:02:10.569Z,5.13
2019-05-20T11:05:33.172Z,2.37
2019-05-20T11:08:02.079Z,3.73
2019-05-20T11:10:41.215Z,2.20
2019-05-20T11:13:26.520Z,3.57
2019-05-20T11:16:26.539Z,2.70
2019-05-20T11:22:38.700Z,2.50
2019-05-20T11:29:05.149Z,3.03
2019-05-20T11:31:12.160Z,2.67
2019-05-20T11:33:41.592Z,3.10
2019-05-20T11:36:10.451Z,3.37
2019-05-20T11:39:32.522Z,3.03
2019-05-20T11:41:54.808Z,2.73
2019-05-20T11:47:55.508Z,2.53
2019-05-20T11:50:30.766Z,2.17
2019-05-20T11:53:23.575Z,3.27
2019-05-20T11:55:54.249Z,2.20
2019-05-20T11:58:24.238Z,3.07
2019-05-20T12:01:23.092Z,2.40
2019-05-20T12:03:50.866Z,3.53
2019-05-20T12:06:18.838Z,2.13
2019-05-20T12:09:11.693Z,1.90
2019-05-20T12:11:39.594Z,2.17
2019-05-20T12:14:07.282Z,3.20
2019-05-20T12:16:37.549Z,2.87
2019-05-20T12:19:05.295Z,3.50
2019-05-20T12:21:33.212Z,2.10
2019-05-20T12:24:01.079Z,2.67
2019-05-20T12:26:31.487Z,2.93
2019-05-20T12:28:59.304Z,2.63
2019-05-20T12:31:27.249Z,1.53
2019-05-20T12:33:55.252Z,1.90
2019-05-20T12:36:25.442Z,2.30
2019-05-20T12:39:07.184Z,2.47
2019-05-20T12:41:46.971Z,1.97
2019-05-20T12:44:16.866Z,2.30
2019-05-20T12:46:53.392Z,2.77
2019-05-20T12:49:17.815Z,2.20
2019-05-20T12:51:48.069Z,2.93
2019-05-20T12:54:21.845Z,2.47
2019-05-20T12:56:55.457Z,3.70
2019-05-20T12:59:23.630Z,1.73
2019-05-20T13:02:06.027Z,3.43
2019-05-20T13:04:41.315Z,2.83
2019-05-20T13:07:21.507Z,2.07
2019-05-20T13:10:31.751Z,2.90
2019-05-20T13:23:53.486Z,1.17
2019-05-20T13:26:29.583Z,0.40
2019-05-20T13:29:33.468Z,1.37
2019-05-20T13:35:49.692Z,1.53
2019-05-20T13:38:57.501Z,3.30
2019-05-20T13:42:10.302Z,2.57
2019-05-20T13:53:46.947Z,2.50
2019-05-20T13:56:14.711Z,2.13
2019-05-20T13:58:48.658Z,0.67
2019-05-20T14:01:44.412Z,0.50
2019-05-20T14:04:17.664Z,2.43
2019-05-20T14:06:49.294Z,2.97
2019-05-20T14:09:31.413Z,3.33
2019-05-20T19:50:52.898Z,1.90
2019-05-20T19:53:21.097Z,2.33
2019-05-20T19:55:49.687Z,1.17
2019-05-20T19:58:20.403Z,4.90
2019-05-20T20:00:49.091Z,4.23
2019-05-20T20:03:17.599Z,2.83
2019-05-20T20:05:45.808Z,4.87
2019-05-20T20:08:13.978Z,1.10
2019-05-20T20:10:48.085Z,1.43
2019-05-20T20:13:19.168Z,1.17
2019-05-20T20:15:51.261Z,2.10
2019-05-20T20:18:25.490Z,1.83
2019-05-20T20:21:18.822Z,1.57
2019-05-20T20:23:51.507Z,1.23
2019-05-20T20:26:33.644Z,4.20
2019-05-20T20:29:01.164Z,3.37
2019-05-20T20:31:37.962Z,1.60
2019-05-20T20:34:11.089Z,9.70
2019-05-20T20:36:40.659Z,1.63
2019-05-20T20:39:11.224Z,12.30
2019-05-20T20:41:39.482Z,2.90
2019-05-20T20:44:07.768Z,9.10
2019-05-20T20:46:40.378Z,7.93
2019-05-20T20:49:10.588Z,7.00
2019-05-20T20:51:38.883Z,3.87
2019-05-20T20:54:06.979Z,3.20
2019-05-20T20:56:35.098Z,6.33
2019-05-20T20:59:12.031Z,3.27
2019-05-20T21:01:59.150Z,2.90
2019-05-20T21:04:26.355Z,2.73
2019-05-20T21:06:54.541Z,3.17
2019-05-20T21:09:37.849Z,7.27
2019-05-20T21:12:06.835Z,3.10
2019-05-20T21:14:38.580Z,2.80
2019-05-20T21:17:13.535Z,2.90
2019-05-20T21:19:51.862Z,4.17
2019-05-20T21:22:21.604Z,5.67
2019-05-20T21:25:00.725Z,2.50
2019-05-20T21:27:33.144Z,3.07
2019-05-20T21:30:03.230Z,3.30
2019-05-20T21:32:34.877Z,2.63
2019-05-20T21:35:03.284Z,4.87
2019-05-20T21:37:31.647Z,2.77
2019-05-20T21:40:00.148Z,3.80
2019-05-20T21:42:31.032Z,27.93
2019-05-20T21:44:59.450Z,21.67
2019-05-20T21:47:44.737Z,2.60
2019-05-20T21:50:12.863Z,1.87
2019-05-20T21:52:48.291Z,3.50
2019-05-20T21:55:22.499Z,1.97
2019-05-20T21:57:50.972Z,2.20
2019-05-20T22:00:27.176Z,2.33
2019-05-20T22:02:58.533Z,3.17
2019-05-20T22:05:29.066Z,3.00
2019-05-20T22:07:58.056Z,2.20
2019-05-20T22:10:26.559Z,2.90
2019-05-20T22:12:57.034Z,3.10
2019-05-20T22:15:25.994Z,2.37
2019-05-20T22:18:01.253Z,3.67
2019-05-20T22:20:27.832Z,3.63
2019-05-20T22:23:17.279Z,2.10
2019-05-20T22:25:49.195Z,2.93
2019-05-20T22:28:37.029Z,2.03
2019-05-20T22:31:18.930Z,2.00
2019-05-20T22:33:50.598Z,1.67
2019-05-20T22:36:27.411Z,2.33
2019-05-20T22:39:02.608Z,2.10
2019-05-20T22:41:32.341Z,1.83
2019-05-20T22:44:00.894Z,1.70
2019-05-20T22:46:28.747Z,1.40
2019-05-20T22:49:07.595Z,3.53
2019-05-20T22:51:42.477Z,2.30
2019-05-20T22:54:10.837Z,1.97
2019-05-20T22:56:39.238Z,2.80
2019-05-20T22:59:07.807Z,2.60
2019-05-20T23:01:36.113Z,4.03
2019-05-20T23:04:08.877Z,1.60
2019-05-20T23:06:38.509Z,1.67
2019-05-20T23:09:14.939Z,2.50
2019-05-20T23:11:50.414Z,1.40
2019-05-20T23:14:23.019Z,2.20
2019-05-20T23:16:56.546Z,3.83
2019-05-20T23:19:25.454Z,3.33
2019-05-20T23:21:54.587Z,3.20
2019-05-20T23:24:27.924Z,1.93
2019-05-20T23:26:56.726Z,2.03
2019-05-20T23:29:33.454Z,3.33
2019-05-20T23:32:54.507Z,2.20
2019-05-20T23:35:22.453Z,1.40
2019-05-20T23:37:56.616Z,1.63
2019-05-20T23:40:24.746Z,1.73
2019-05-20T23:42:52.763Z,2.73
2019-05-20T23:45:20.740Z,1.33
2019-05-20T23:47:48.577Z,1.93
2019-05-20T23:50:16.773Z,1.60
2019-05-20T23:52:47.451Z,2.90
2019-05-20T23:55:18.550Z,1.93
2019-05-20T23:57:46.082Z,1.70
